createdAt,value
2023-12-01T00:00:57.309Z,1.40
2023-12-01T00:02:59.653Z,1.88
2023-12-01T00:05:01.314Z,2.25
2023-12-01T00:07:03.186Z,1.70
2023-12-01T00:09:05.012Z,1.55
2023-12-01T00:11:06.914Z,1.38
2023-12-01T00:13:08.520Z,1.15
2023-12-01T00:15:10.502Z,1.20
2023-12-01T00:17:12.399Z,1.95
2023-12-01T00:19:14.018Z,1.30
2023-12-01T00:21:15.615Z,1.65
2023-12-01T00:23:17.223Z,1.65
2023-12-01T00:25:18.891Z,1.33
2023-12-01T00:27:20.605Z,2.13
2023-12-01T00:29:22.234Z,1.55
2023-12-01T00:31:23.862Z,1.63
2023-12-01T00:33:26.579Z,1.70
2023-12-01T00:35:28.189Z,1.48
2023-12-01T00:37:31.449Z,1.50
2023-12-01T00:39:32.997Z,1.40
2023-12-01T00:41:34.562Z,1.88
2023-12-01T00:43:38.194Z,1.45
2023-12-01T00:45:40.275Z,2.10
2023-12-01T00:47:42.064Z,1.20
2023-12-01T00:49:43.625Z,2.10
2023-12-01T00:51:46.540Z,1.60
2023-12-01T00:53:48.620Z,1.52
2023-12-01T00:55:50.582Z,1.50
2023-12-01T00:57:55.124Z,1.60
2023-12-01T00:59:56.942Z,2.38
2023-12-01T01:01:58.649Z,1.60
2023-12-01T01:04:00.345Z,1.27
2023-12-01T01:06:03.168Z,1.48
2023-12-01T01:08:05.069Z,1.80
2023-12-01T01:10:07.305Z,1.65
2023-12-01T01:12:09.060Z,1.38
2023-12-01T01:14:10.674Z,1.80
2023-12-01T01:16:12.324Z,1.42
2023-12-01T01:18:14.044Z,1.52
2023-12-01T01:20:15.697Z,1.27
2023-12-01T01:22:17.424Z,1.23
2023-12-01T01:24:18.945Z,1.42
2023-12-01T01:26:20.550Z,1.88
2023-12-01T01:28:22.154Z,2.05
2023-12-01T01:30:23.830Z,1.75
2023-12-01T01:32:25.532Z,1.23
2023-12-01T01:34:28.325Z,1.63
2023-12-01T01:36:29.960Z,1.20
2023-12-01T01:38:31.491Z,1.42
2023-12-01T01:40:33.780Z,1.10
2023-12-01T01:42:36.202Z,2.28
2023-12-01T01:44:37.793Z,1.50
2023-12-01T01:46:39.737Z,1.08
2023-12-01T01:48:44.969Z,1.20
2023-12-01T01:50:46.791Z,1.67
2023-12-01T01:52:48.415Z,1.52
2023-12-01T01:54:50.032Z,1.98
2023-12-01T01:56:53.140Z,1.83
2023-12-01T01:58:54.813Z,2.22
2023-12-01T02:00:56.593Z,1.50
2023-12-01T02:02:58.575Z,1.35
2023-12-01T02:05:01.088Z,1.75
2023-12-01T02:07:03.354Z,1.75
2023-12-01T02:09:06.253Z,1.58
2023-12-01T02:11:07.881Z,1.65
2023-12-01T02:13:11.527Z,1.52
2023-12-01T02:15:13.736Z,1.85
2023-12-01T02:17:15.350Z,1.52
2023-12-01T02:19:17.193Z,1.35
2023-12-01T02:21:23.997Z,1.65
2023-12-01T02:23:25.961Z,1.70
2023-12-01T02:25:27.622Z,1.50
2023-12-01T02:27:29.461Z,1.05
2023-12-01T02:29:31.081Z,2.20
2023-12-01T02:31:33.284Z,1.90
2023-12-01T02:33:35.033Z,1.67
2023-12-01T02:35:36.725Z,1.75
2023-12-01T02:37:38.316Z,1.40
2023-12-01T02:39:39.876Z,1.75
2023-12-01T02:41:41.554Z,1.40
2023-12-01T02:43:43.141Z,2.00
2023-12-01T02:45:45.510Z,1.60
2023-12-01T02:47:49.164Z,1.02
2023-12-01T02:49:50.774Z,1.17
2023-12-01T02:51:52.386Z,1.58
2023-12-01T02:53:53.956Z,1.35
2023-12-01T02:55:55.535Z,1.20
2023-12-01T02:57:57.244Z,1.20
2023-12-01T02:59:58.870Z,1.52
2023-12-01T03:02:00.451Z,1.00
2023-12-01T03:04:02.146Z,1.27
2023-12-01T03:06:05.063Z,1.17
2023-12-01T03:08:06.865Z,1.58
2023-12-01T03:10:09.354Z,1.42
2023-12-01T03:12:11.405Z,1.33
2023-12-01T03:14:13.103Z,1.25
2023-12-01T03:16:14.814Z,1.60
2023-12-01T03:18:16.553Z,1.65
2023-12-01T03:20:18.354Z,1.85
2023-12-01T03:22:20.577Z,1.40
2023-12-01T03:24:22.159Z,2.05
2023-12-01T03:26:23.800Z,1.33
2023-12-01T03:28:25.370Z,1.70
2023-12-01T03:30:26.957Z,1.50
2023-12-01T03:32:28.582Z,1.10
2023-12-01T03:34:30.129Z,1.63
2023-12-01T03:36:31.744Z,1.45
2023-12-01T03:38:33.285Z,1.20
2023-12-01T03:40:34.779Z,1.20
2023-12-01T03:42:39.160Z,1.35
2023-12-01T03:44:40.726Z,1.60
2023-12-01T03:46:42.517Z,2.42
2023-12-01T03:48:44.174Z,1.08
2023-12-01T03:50:45.823Z,1.92
2023-12-01T03:52:49.447Z,1.20
2023-12-01T03:54:51.001Z,1.27
2023-12-01T03:56:52.688Z,1.15
2023-12-01T03:58:56.268Z,1.45
2023-12-01T04:00:57.853Z,1.20
2023-12-01T04:02:59.779Z,1.45
2023-12-01T04:05:01.323Z,1.48
2023-12-01T04:07:02.912Z,1.50
2023-12-01T04:09:06.973Z,1.00
2023-12-01T04:11:08.775Z,1.08
2023-12-01T04:13:10.511Z,1.27
2023-12-01T04:15:14.169Z,1.48
2023-12-01T04:17:15.753Z,1.23
2023-12-01T04:19:17.821Z,2.00
2023-12-01T04:21:19.724Z,1.08
2023-12-01T04:23:21.587Z,1.40
2023-12-01T04:25:24.054Z,1.23
2023-12-01T04:27:27.008Z,1.63
2023-12-01T04:29:32.336Z,0.85
2023-12-01T04:31:35.319Z,1.25
2023-12-01T04:33:37.135Z,2.25
2023-12-01T04:35:38.844Z,1.48
2023-12-01T04:37:41.896Z,1.60
2023-12-01T04:39:43.579Z,1.20
2023-12-01T04:41:45.310Z,1.60
2023-12-01T04:43:47.053Z,1.75
2023-12-01T04:45:48.753Z,1.40
2023-12-01T04:47:52.617Z,1.42
2023-12-01T04:49:54.330Z,1.63
2023-12-01T04:51:55.922Z,1.60
2023-12-01T04:53:57.554Z,1.17
2023-12-01T04:55:59.592Z,1.02
2023-12-01T04:58:01.213Z,1.77
2023-12-01T05:00:19.947Z,1.45
2023-12-01T05:02:21.539Z,1.73
2023-12-01T05:04:23.313Z,2.05
2023-12-01T05:06:24.962Z,1.13
2023-12-01T05:08:28.913Z,1.80
2023-12-01T05:10:31.763Z,1.38
2023-12-01T05:12:33.357Z,1.85
2023-12-01T05:14:34.964Z,2.10
2023-12-01T05:16:39.674Z,1.40
2023-12-01T05:18:41.362Z,1.15
2023-12-01T05:20:43.627Z,1.30
2023-12-01T05:22:55.630Z,1.52
2023-12-01T05:24:58.356Z,1.50
2023-12-01T05:27:09.040Z,1.10
2023-12-01T05:29:14.177Z,2.15
2023-12-01T05:31:16.134Z,1.60
2023-12-01T05:33:18.259Z,1.38
2023-12-01T05:35:21.080Z,2.60
2023-12-01T05:37:22.844Z,1.17
2023-12-01T05:39:24.495Z,1.33
2023-12-01T05:41:26.103Z,1.48
2023-12-01T05:43:27.929Z,1.77
2023-12-01T05:45:33.147Z,1.60
2023-12-01T05:47:34.793Z,1.90
2023-12-01T05:49:36.397Z,1.80
2023-12-01T05:51:38.027Z,1.85
2023-12-01T05:53:39.645Z,1.38
2023-12-01T05:55:41.260Z,1.65
2023-12-01T05:57:43.529Z,1.48
2023-12-01T05:59:45.840Z,1.50
2023-12-01T06:01:47.547Z,1.90
2023-12-01T06:03:49.212Z,1.70
2023-12-01T06:05:50.972Z,2.13
2023-12-01T06:07:55.707Z,1.60
2023-12-01T06:09:58.519Z,1.98
2023-12-01T06:12:00.218Z,2.33
2023-12-01T06:14:01.952Z,1.80
2023-12-01T06:16:03.732Z,1.65
2023-12-01T06:18:05.480Z,1.88
2023-12-01T06:20:27.903Z,1.77
2023-12-01T06:22:29.600Z,1.88
2023-12-01T06:24:34.238Z,2.13
2023-12-01T06:26:36.845Z,1.60
2023-12-01T06:28:38.465Z,1.70
2023-12-01T06:30:41.454Z,2.03
2023-12-01T06:32:44.618Z,1.90
2023-12-01T06:34:46.244Z,2.63
2023-12-01T06:36:47.786Z,2.10
2023-12-01T06:38:49.451Z,2.05
2023-12-01T06:40:51.133Z,2.22
2023-12-01T06:42:55.279Z,2.45
2023-12-01T06:44:58.168Z,1.98
2023-12-01T06:47:00.553Z,1.90
2023-12-01T06:49:02.556Z,1.98
2023-12-01T06:51:04.504Z,2.92
2023-12-01T06:53:08.125Z,2.22
2023-12-01T06:55:10.488Z,2.38
2023-12-01T06:57:12.244Z,2.70
2023-12-01T06:59:13.775Z,2.67
2023-12-01T07:01:19.841Z,2.15
2023-12-01T07:03:21.555Z,2.42
2023-12-01T07:05:30.806Z,2.47
2023-12-01T07:07:33.689Z,1.70
2023-12-01T07:09:37.770Z,2.22
2023-12-01T07:11:42.115Z,2.75
2023-12-01T07:13:43.899Z,2.30
2023-12-01T07:15:45.615Z,2.25
2023-12-01T07:17:51.778Z,1.63
2023-12-01T07:19:53.377Z,2.20
2023-12-01T07:21:54.935Z,2.38
2023-12-01T07:23:56.541Z,2.28
2023-12-01T07:25:58.135Z,2.45
2023-12-01T07:28:02.113Z,2.55
2023-12-01T07:30:05.051Z,2.35
2023-12-01T07:32:08.036Z,2.22
2023-12-01T07:34:09.645Z,2.05
2023-12-01T07:36:13.448Z,2.22
2023-12-01T07:38:17.273Z,2.50
2023-12-01T07:40:21.021Z,2.22
2023-12-01T07:42:25.614Z,2.25
2023-12-01T07:44:29.688Z,1.65
2023-12-01T07:46:34.367Z,2.03
2023-12-01T07:48:36.883Z,2.13
2023-12-01T07:50:38.524Z,2.25
2023-12-01T07:52:40.775Z,1.75
2023-12-01T07:54:43.940Z,2.17
2023-12-01T07:56:45.509Z,2.13
2023-12-01T07:58:47.055Z,2.08
2023-12-01T08:00:48.786Z,1.80
2023-12-01T08:02:53.794Z,2.08
2023-12-01T08:04:56.204Z,2.70
2023-12-01T08:06:58.794Z,2.38
2023-12-01T08:09:00.486Z,2.30
2023-12-01T08:11:05.144Z,2.20
2023-12-01T08:13:06.772Z,2.65
2023-12-01T08:15:08.763Z,1.65
2023-12-01T08:17:10.571Z,2.20
2023-12-01T08:19:12.275Z,2.30
2023-12-01T08:21:15.507Z,1.80
2023-12-01T08:23:17.527Z,2.13
2023-12-01T08:25:19.073Z,2.10
2023-12-01T08:27:20.674Z,2.08
2023-12-01T08:29:22.333Z,1.63
2023-12-01T08:31:24.697Z,2.67
2023-12-01T08:33:26.514Z,2.55
2023-12-01T08:35:28.301Z,2.42
2023-12-01T08:37:30.127Z,2.03
2023-12-01T08:39:31.724Z,1.83
2023-12-01T08:41:33.357Z,2.00
2023-12-01T08:43:35.201Z,2.47
2023-12-01T08:45:37.851Z,1.52
2023-12-01T08:47:41.869Z,2.00
2023-12-01T08:49:43.651Z,2.72
2023-12-01T08:51:45.332Z,2.65
2023-12-01T08:53:47.155Z,2.22
2023-12-01T08:55:49.427Z,1.77
2023-12-01T08:57:51.095Z,2.70
2023-12-01T08:59:52.788Z,1.90
2023-12-01T09:01:54.422Z,2.03
2023-12-01T09:03:56.231Z,2.22
2023-12-01T09:05:58.153Z,2.72
2023-12-01T09:08:02.882Z,2.13
2023-12-01T09:10:04.685Z,2.50
2023-12-01T09:12:06.644Z,2.17
2023-12-01T09:14:08.224Z,2.60
2023-12-01T09:16:09.938Z,2.65
2023-12-01T09:18:11.794Z,2.42
2023-12-01T09:20:13.445Z,3.05
2023-12-01T09:22:15.042Z,2.28
2023-12-01T09:24:17.315Z,2.88
2023-12-01T09:26:19.618Z,2.90
2023-12-01T09:28:21.374Z,2.45
2023-12-01T09:30:23.147Z,2.58
2023-12-01T09:32:24.998Z,2.50
2023-12-01T09:34:27.131Z,2.50
2023-12-01T09:36:29.038Z,3.28
2023-12-01T09:38:30.641Z,2.70
2023-12-01T09:40:37.412Z,2.50
2023-12-01T09:42:39.965Z,2.42
2023-12-01T09:44:42.616Z,2.42
2023-12-01T09:46:44.553Z,2.13
2023-12-01T09:48:47.530Z,2.25
2023-12-01T09:50:50.659Z,3.22
2023-12-01T09:52:55.258Z,2.55
2023-12-01T09:55:07.586Z,2.55
2023-12-01T09:57:11.570Z,2.33
2023-12-01T09:59:17.223Z,2.20
2023-12-01T10:01:20.339Z,2.60
2023-12-01T10:03:22.527Z,2.78
2023-12-01T10:05:24.237Z,2.72
2023-12-01T10:07:26.540Z,2.45
2023-12-01T10:09:33.974Z,2.45
2023-12-01T10:11:35.689Z,3.10
2023-12-01T10:13:40.589Z,3.10
2023-12-01T10:15:42.255Z,3.45
2023-12-01T10:17:43.968Z,2.28
2023-12-01T10:19:48.463Z,2.63
2023-12-01T10:21:51.109Z,3.15
2023-12-01T10:23:56.113Z,2.53
2023-12-01T10:25:58.366Z,2.85
2023-12-01T10:27:59.978Z,2.70
2023-12-01T10:30:15.583Z,2.03
2023-12-01T10:32:19.139Z,2.60
2023-12-01T10:34:20.953Z,2.83
2023-12-01T10:36:22.659Z,3.08
2023-12-01T10:38:26.812Z,2.70
2023-12-01T10:40:28.578Z,3.00
2023-12-01T10:42:30.971Z,2.92
2023-12-01T10:44:33.113Z,2.75
2023-12-01T10:46:37.024Z,2.03
2023-12-01T10:48:40.227Z,2.83
2023-12-01T10:50:43.403Z,2.60
2023-12-01T10:52:46.454Z,2.50
2023-12-01T10:54:48.290Z,2.40
2023-12-01T10:57:05.242Z,2.03
2023-12-01T10:59:10.241Z,2.33
2023-12-01T11:01:13.281Z,2.28
2023-12-01T11:03:18.891Z,2.10
2023-12-01T11:05:20.851Z,2.38
2023-12-01T11:07:31.302Z,2.25
2023-12-01T11:09:58.817Z,2.28
2023-12-01T11:12:18.839Z,2.05
2023-12-01T11:14:22.229Z,2.35
2023-12-01T11:16:23.933Z,2.17
2023-12-01T11:18:26.298Z,1.83
2023-12-01T11:20:34.646Z,2.00
2023-12-01T11:22:38.532Z,2.05
2023-12-01T11:24:44.281Z,2.78
2023-12-01T11:26:49.369Z,1.70
2023-12-01T11:28:59.331Z,2.50
2023-12-01T11:31:10.663Z,2.25
2023-12-01T11:33:14.011Z,1.77
2023-12-01T11:35:16.334Z,1.80
2023-12-01T11:39:30.376Z,1.27
2023-12-01T11:41:33.741Z,1.92
2023-12-01T11:43:39.958Z,1.55
2023-12-01T11:52:13.265Z,3.25
2023-12-01T11:54:14.978Z,1.85
2023-12-01T11:56:16.657Z,1.88
2023-12-01T11:58:21.155Z,2.40
2023-12-01T12:02:31.667Z,1.50
2023-12-01T12:04:34.250Z,1.88
2023-12-01T12:06:36.706Z,1.40
2023-12-01T12:08:39.201Z,2.03
2023-12-01T12:10:40.792Z,2.15
2023-12-01T12:12:42.391Z,2.30
2023-12-01T12:14:44.590Z,2.00
2023-12-01T12:16:46.783Z,1.58
2023-12-01T12:18:51.439Z,2.22
2023-12-01T12:25:09.449Z,1.77
2023-12-01T12:27:11.351Z,2.13
2023-12-01T12:29:13.081Z,1.83
2023-12-01T12:35:28.940Z,2.65
2023-12-01T12:37:31.317Z,2.25
2023-12-01T12:39:33.527Z,4.13
2023-12-01T12:41:40.819Z,2.35
2023-12-01T12:43:42.627Z,2.92
2023-12-01T12:49:57.432Z,2.10
2023-12-01T12:52:00.553Z,2.70
2023-12-01T12:54:03.552Z,2.35
2023-12-01T12:56:12.819Z,2.78
2023-12-01T12:58:14.468Z,2.80
2023-12-01T13:00:17.955Z,2.97
2023-12-01T13:02:19.770Z,2.30
2023-12-01T13:04:21.718Z,3.47
2023-12-01T13:06:23.870Z,2.28
2023-12-01T13:08:25.504Z,3.17
2023-12-01T13:10:27.090Z,1.98
2023-12-01T13:12:28.818Z,2.70
2023-12-01T13:14:30.358Z,2.08
2023-12-01T13:16:32.335Z,2.22
2023-12-01T13:18:39.920Z,2.08
2023-12-01T13:20:41.938Z,2.40
2023-12-01T13:22:44.538Z,2.03
2023-12-01T13:24:46.578Z,1.75
2023-12-01T13:26:48.322Z,3.17
2023-12-01T13:28:49.889Z,2.72
2023-12-01T13:30:51.558Z,2.20
2023-12-01T13:32:53.180Z,1.75
2023-12-01T13:34:58.161Z,2.35
2023-12-01T13:36:59.833Z,2.05
2023-12-01T13:39:01.415Z,1.55
2023-12-01T13:41:03.028Z,1.60
2023-12-01T13:43:05.198Z,1.65
2023-12-01T13:45:10.059Z,1.75
2023-12-01T13:47:13.120Z,1.58
2023-12-01T13:49:17.955Z,2.17
2023-12-01T13:51:20.389Z,1.92
2023-12-01T13:53:22.220Z,2.15
2023-12-01T13:55:24.739Z,1.23
2023-12-01T13:57:26.358Z,2.35
2023-12-01T13:59:27.968Z,2.00
2023-12-01T14:01:29.691Z,2.00
2023-12-01T14:03:32.520Z,2.20
2023-12-01T14:05:34.489Z,2.78
2023-12-01T14:07:36.479Z,1.77
2023-12-01T14:09:38.765Z,1.58
2023-12-01T14:11:40.537Z,1.55
2023-12-01T14:13:42.324Z,1.73
2023-12-01T14:15:44.088Z,1.80
2023-12-01T14:17:47.716Z,1.50
2023-12-01T14:19:49.658Z,1.92
2023-12-01T14:21:51.774Z,1.80
2023-12-01T14:23:53.594Z,1.48
2023-12-01T14:25:55.838Z,1.88
2023-12-01T14:27:57.533Z,1.67
2023-12-01T14:29:59.074Z,1.80
2023-12-01T14:32:09.340Z,1.90
2023-12-01T14:34:17.400Z,2.05
2023-12-01T14:36:20.352Z,2.22
2023-12-01T14:38:22.417Z,1.63
2023-12-01T14:40:24.201Z,1.52
2023-12-01T14:42:25.962Z,3.72
2023-12-01T14:44:29.582Z,7.07
2023-12-01T14:46:31.166Z,7.93
2023-12-01T14:48:32.891Z,9.95
2023-12-01T14:50:34.470Z,12.15
2023-12-01T14:52:36.172Z,9.75
2023-12-01T14:54:38.681Z,11.88
2023-12-01T14:56:40.245Z,10.98
2023-12-01T14:58:41.900Z,10.07
2023-12-01T15:00:43.525Z,11.15
2023-12-01T15:02:45.199Z,10.00
2023-12-01T15:04:46.878Z,9.55
2023-12-01T15:06:49.544Z,9.23
2023-12-01T15:08:51.364Z,8.45
2023-12-01T15:10:53.055Z,7.35
2023-12-01T15:25:29.727Z,7.00
2023-12-01T15:27:32.229Z,6.43
2023-12-01T15:29:33.892Z,6.00
2023-12-01T15:31:35.488Z,6.18
2023-12-01T15:33:37.192Z,4.05
2023-12-01T15:35:38.891Z,5.07
2023-12-01T15:37:41.572Z,3.40
2023-12-01T15:39:43.290Z,3.92
2023-12-01T15:41:44.998Z,3.10
2023-12-01T15:43:46.593Z,3.58
2023-12-01T15:45:48.188Z,4.40
2023-12-01T15:47:49.914Z,2.85
2023-12-01T15:49:51.735Z,2.40
2023-12-01T15:51:53.259Z,3.10
2023-12-01T15:53:55.047Z,2.17
2023-12-01T15:55:57.159Z,2.05
2023-12-01T15:57:58.937Z,2.35
2023-12-01T16:00:01.712Z,1.98
2023-12-01T16:02:04.680Z,1.98
2023-12-01T16:04:06.445Z,2.10
2023-12-01T16:06:08.607Z,2.25
2023-12-01T16:08:10.747Z,3.15
2023-12-01T16:10:12.306Z,1.98
2023-12-01T16:12:14.102Z,2.50
2023-12-01T16:14:15.716Z,1.52
2023-12-01T16:16:17.315Z,1.80
2023-12-01T16:18:21.480Z,1.35
2023-12-01T16:20:23.313Z,1.98
2023-12-01T16:22:25.085Z,1.30
2023-12-01T16:24:30.880Z,1.60
2023-12-01T16:26:35.150Z,2.13
2023-12-01T16:28:36.735Z,1.45
2023-12-01T16:30:38.366Z,1.52
2023-12-01T16:32:40.146Z,2.53
2023-12-01T16:34:41.735Z,1.83
2023-12-01T16:36:53.040Z,2.33
2023-12-01T16:38:56.893Z,1.40
2023-12-01T16:40:58.643Z,1.75
2023-12-01T16:43:00.352Z,2.30
2023-12-01T16:45:02.166Z,3.33
2023-12-01T16:47:04.140Z,3.20
2023-12-01T16:49:05.941Z,3.33
2023-12-01T16:51:09.255Z,2.08
2023-12-01T16:53:11.602Z,2.60
2023-12-01T16:55:15.806Z,1.40
2023-12-01T16:57:18.792Z,2.63
2023-12-01T16:59:20.517Z,1.60
2023-12-01T17:01:22.182Z,2.25
2023-12-01T17:03:24.064Z,2.08
2023-12-01T17:05:27.081Z,1.50
2023-12-01T17:07:28.640Z,2.33
2023-12-01T17:09:30.612Z,2.65
2023-12-01T17:11:32.309Z,2.17
2023-12-01T17:13:33.930Z,2.15
2023-12-01T17:15:35.576Z,2.30
2023-12-01T17:17:37.554Z,2.05
2023-12-01T17:19:39.156Z,1.90
2023-12-01T17:21:40.892Z,3.40
2023-12-01T17:23:42.868Z,2.05
2023-12-01T17:25:45.491Z,3.72
2023-12-01T17:27:47.105Z,2.83
2023-12-01T17:29:49.628Z,3.03
2023-12-01T17:31:51.214Z,2.38
2023-12-01T17:33:52.809Z,5.32
2023-12-01T17:35:54.505Z,2.55
2023-12-01T17:37:56.192Z,2.88
2023-12-01T17:39:58.418Z,2.75
2023-12-01T17:42:00.066Z,3.70
2023-12-01T17:44:01.707Z,2.72
2023-12-01T17:46:03.527Z,2.67
2023-12-01T17:48:05.375Z,2.60
2023-12-01T17:50:07.637Z,2.33
2023-12-01T17:52:09.269Z,2.67
2023-12-01T17:54:11.119Z,2.90
2023-12-01T17:56:12.736Z,2.67
2023-12-01T17:58:14.491Z,2.10
2023-12-01T18:00:17.168Z,2.67
2023-12-01T18:02:18.721Z,2.75
2023-12-01T18:04:20.501Z,3.20
2023-12-01T18:06:22.166Z,3.53
2023-12-01T18:08:23.725Z,2.92
2023-12-01T18:10:25.253Z,3.55
2023-12-01T18:12:26.876Z,2.58
2023-12-01T18:14:28.547Z,2.85
2023-12-01T18:16:30.256Z,2.47
2023-12-01T18:18:33.586Z,2.35
2023-12-01T18:20:36.082Z,3.03
2023-12-01T18:22:37.704Z,2.78
2023-12-01T18:24:39.394Z,2.35
2023-12-01T18:26:42.033Z,2.30
2023-12-01T18:28:44.408Z,3.25
2023-12-01T18:30:46.035Z,2.55
2023-12-01T18:32:47.951Z,2.92
2023-12-01T18:34:49.769Z,2.30
2023-12-01T18:36:51.315Z,2.33
2023-12-01T18:38:53.013Z,2.72
2023-12-01T18:40:54.673Z,2.85
2023-12-01T18:42:56.310Z,3.17
2023-12-01T18:44:58.082Z,2.72
2023-12-01T18:46:59.919Z,2.80
2023-12-01T18:49:01.649Z,2.40
2023-12-01T18:51:04.571Z,3.05
2023-12-01T18:53:07.872Z,2.25
2023-12-01T18:55:09.552Z,2.17
2023-12-01T18:57:11.268Z,3.13
2023-12-01T18:59:12.991Z,2.22
2023-12-01T19:01:14.832Z,2.95
2023-12-01T19:03:16.721Z,2.60
2023-12-01T19:05:20.073Z,2.92
2023-12-01T19:07:23.046Z,2.28
2023-12-01T19:09:24.999Z,2.05
2023-12-01T19:11:26.755Z,2.15
2023-12-01T19:13:28.366Z,2.35
2023-12-01T19:15:29.952Z,2.25
2023-12-01T19:17:32.024Z,2.85
2023-12-01T19:19:33.804Z,2.17
2023-12-01T19:21:35.354Z,2.42
2023-12-01T19:23:37.026Z,2.63
2023-12-01T19:25:38.619Z,2.78
2023-12-01T19:27:40.270Z,2.80
2023-12-01T19:29:41.868Z,2.47
2023-12-01T19:31:43.448Z,1.80
2023-12-01T19:33:45.410Z,2.72
2023-12-01T19:35:47.054Z,2.17
2023-12-01T19:37:50.009Z,2.70
2023-12-01T19:39:53.292Z,2.28
2023-12-01T19:41:54.859Z,2.60
2023-12-01T19:43:57.773Z,2.50
2023-12-01T19:45:59.525Z,2.78
2023-12-01T19:48:01.329Z,2.67
2023-12-01T19:50:03.192Z,2.88
2023-12-01T19:52:04.953Z,2.55
2023-12-01T19:54:06.571Z,2.42
2023-12-01T19:56:08.676Z,2.10
2023-12-01T19:58:10.527Z,2.50
2023-12-01T20:00:12.827Z,2.95
2023-12-01T20:02:14.470Z,2.90
2023-12-01T20:04:16.057Z,2.40
2023-12-01T20:06:17.880Z,2.92
2023-12-01T20:08:19.708Z,2.53
2023-12-01T20:10:21.324Z,2.80
2023-12-01T20:12:22.894Z,3.08
2023-12-01T20:14:26.306Z,2.50
2023-12-01T20:16:28.098Z,3.15
2023-12-01T20:18:29.882Z,2.95
2023-12-01T20:20:31.517Z,2.75
2023-12-01T20:22:33.198Z,2.38
2023-12-01T20:26:43.924Z,3.03
2023-12-01T20:28:45.590Z,3.20
2023-12-01T20:30:47.906Z,2.33
2023-12-01T20:32:49.703Z,2.88
2023-12-01T20:34:51.818Z,2.72
2023-12-01T20:36:53.441Z,2.90
2023-12-01T20:38:55.120Z,3.30
2023-12-01T20:40:56.855Z,2.13
2023-12-01T20:42:58.463Z,3.50
2023-12-01T20:47:09.025Z,2.75
2023-12-01T20:49:10.957Z,3.67
2023-12-01T20:51:16.543Z,4.22
2023-12-01T20:53:18.306Z,3.28
2023-12-01T20:55:20.161Z,4.22
2023-12-01T20:57:21.919Z,3.65
2023-12-01T20:59:23.557Z,3.63
2023-12-01T21:01:25.183Z,3.22
2023-12-01T21:03:26.853Z,2.97
2023-12-01T21:05:28.718Z,2.63
2023-12-01T21:07:30.490Z,3.30
2023-12-01T21:09:32.173Z,3.67
2023-12-01T21:11:33.799Z,2.72
2023-12-01T21:13:35.740Z,3.30
2023-12-01T21:15:37.412Z,3.38
2023-12-01T21:17:39.170Z,3.15
2023-12-01T21:19:41.026Z,2.60
2023-12-01T21:21:43.445Z,3.55
2023-12-01T21:23:45.109Z,3.30
2023-12-01T21:25:46.651Z,3.78
2023-12-01T21:27:48.328Z,2.75
2023-12-01T21:29:50.153Z,3.53
2023-12-01T21:31:51.912Z,3.30
2023-12-01T21:33:53.622Z,3.25
2023-12-01T21:35:55.232Z,2.95
2023-12-01T21:37:57.181Z,3.17
2023-12-01T21:39:59.240Z,3.10
2023-12-01T21:42:00.966Z,3.47
2023-12-01T21:44:02.652Z,3.08
2023-12-01T21:46:04.476Z,3.33
2023-12-01T21:48:07.687Z,2.83
2023-12-01T21:50:10.206Z,2.90
2023-12-01T21:52:12.048Z,2.65
2023-12-01T21:54:14.063Z,3.05
2023-12-01T21:56:15.681Z,3.40
2023-12-01T21:58:17.371Z,3.58
2023-12-01T22:00:19.052Z,3.33
2023-12-01T22:02:20.642Z,2.90
2023-12-01T22:04:22.242Z,3.25
2023-12-01T22:06:23.914Z,3.13
2023-12-01T22:10:32.369Z,3.47
2023-12-01T22:12:34.018Z,3.55
2023-12-01T22:14:35.614Z,4.13
2023-12-01T22:16:37.216Z,3.30
2023-12-01T22:18:39.051Z,3.58
2023-12-01T22:20:40.748Z,3.75
2023-12-01T22:22:42.428Z,3.90
2023-12-01T22:24:44.004Z,3.42
2023-12-01T22:26:45.616Z,2.85
2023-12-01T22:28:47.569Z,3.40
2023-12-01T22:30:49.143Z,3.50
2023-12-01T22:32:50.817Z,3.67
2023-12-01T22:34:52.653Z,3.38
2023-12-01T22:36:55.488Z,3.00
2023-12-01T22:38:57.264Z,3.10
2023-12-01T22:40:58.906Z,3.22
2023-12-01T22:43:00.932Z,3.35
2023-12-01T22:45:02.564Z,3.38
2023-12-01T22:47:04.477Z,3.50
2023-12-01T22:49:07.420Z,3.33
2023-12-01T22:51:11.898Z,3.67
2023-12-01T22:53:13.521Z,3.47
2023-12-01T22:55:15.108Z,3.55
2023-12-01T22:57:16.937Z,3.42
2023-12-01T22:59:18.553Z,2.88
2023-12-01T23:01:21.228Z,3.05
2023-12-01T23:03:23.390Z,3.03
2023-12-01T23:05:26.698Z,3.33
2023-12-01T23:09:34.874Z,3.60
2023-12-01T23:11:36.450Z,3.78
2023-12-01T23:13:38.162Z,2.55
2023-12-01T23:15:39.787Z,3.70
2023-12-01T23:17:41.533Z,3.78
2023-12-01T23:21:50.123Z,2.80
2023-12-01T23:23:51.815Z,2.72
2023-12-01T23:25:53.579Z,3.30
2023-12-01T23:27:55.473Z,2.72
2023-12-01T23:29:57.466Z,2.85
2023-12-01T23:31:59.287Z,2.50
2023-12-01T23:34:01.037Z,2.25
2023-12-01T23:36:02.844Z,2.65
2023-12-01T23:38:04.446Z,2.88
2023-12-01T23:40:06.896Z,2.22
2023-12-01T23:42:08.518Z,2.38
2023-12-01T23:44:10.162Z,2.45
2023-12-01T23:46:11.725Z,2.72
2023-12-01T23:48:13.652Z,2.13
2023-12-01T23:50:15.292Z,2.70
2023-12-01T23:52:16.922Z,2.85
2023-12-01T23:54:18.579Z,2.45
2023-12-01T23:56:21.421Z,2.80
2023-12-01T23:58:23.010Z,2.60
